Time;durP1;ratioP1;P1;durP2;ratioP2;P2;SDS_P1;SDS_P2;PMS_P1;PMS_P2;Temp;Humidity;BMP_temperature;BMP_pressure;BME280_temperature;BME280_humidity;BME280_pressure;Samples;Min_cycle;Max_cycle;Signal;HPM_P1;HPM_P2
2023/11/28 00:01:51;;;;;;;13.90;7.90;;;;;;;-7.08;77.60;98375.95;105739;1254;60291;-77
2023/11/28 00:04:18;;;;;;;11.70;7.40;;;;;;;-7.00;77.62;98378.91;105828;1258;60300;-76
2023/11/28 00:06:45;;;;;;;11.30;7.30;;;;;;;-6.94;77.15;98380.27;105794;1254;73914;-77
2023/11/28 00:09:12;;;;;;;11.10;7.00;;;;;;;-6.99;77.46;98384.38;105859;1257;68807;-80
2023/11/28 00:11:41;;;;;;;11.60;6.80;;;;;;;-7.06;77.94;98384.95;106049;1254;71064;-80
2023/11/28 00:14:08;;;;;;;10.60;6.10;;;;;;;-7.08;78.16;98391.95;106051;1254;61938;-79
2023/11/28 00:16:35;;;;;;;11.40;6.60;;;;;;;-6.98;78.19;98389.65;106352;1254;60372;-79
2023/11/28 00:19:02;;;;;;;12.40;7.10;;;;;;;-6.96;77.63;98388.64;105906;1254;72581;-79
2023/11/28 00:21:29;;;;;;;14.80;8.10;;;;;;;-7.02;77.73;98386.30;106016;1257;68937;-80
2023/11/28 00:23:56;;;;;;;13.40;7.90;;;;;;;-7.11;78.02;98393.86;106002;1253;72581;-82
2023/11/28 00:26:23;;;;;;;15.10;7.30;;;;;;;-7.10;78.09;98400.14;105896;1254;61759;-80
2023/11/28 00:28:55;;;;;;;11.70;7.30;;;;;;;-7.00;77.84;98397.67;106042;1254;60476;-79
2023/11/28 00:31:23;;;;;;;10.80;6.60;;;;;;;-7.04;77.54;98405.64;106103;1257;73749;-79
2023/11/28 00:33:51;;;;;;;12.20;7.70;;;;;;;-7.12;77.54;98402.52;105888;1254;70333;-80
2023/11/28 00:36:17;;;;;;;14.90;8.40;;;;;;;-7.16;77.58;98400.69;105958;1259;70219;-81
2023/11/28 00:38:44;;;;;;;13.90;7.50;;;;;;;-7.05;77.36;98409.67;105830;1254;60568;-81
2023/11/28 00:41:12;;;;;;;13.10;8.00;;;;;;;-7.05;77.17;98408.45;105932;1254;60515;-80
2023/11/28 00:43:39;;;;;;;12.70;8.30;;;;;;;-7.10;77.05;98406.02;105821;1255;74276;-77
2023/11/28 00:46:06;;;;;;;12.40;7.20;;;;;;;-7.13;77.14;98408.45;105740;1255;69017;-80
2023/11/28 00:48:33;;;;;;;12.00;6.90;;;;;;;-7.05;76.83;98408.16;106079;1256;72384;-78
2023/11/28 00:51:00;;;;;;;12.90;7.60;;;;;;;-7.00;76.71;98409.89;106276;1257;60537;-79
2023/11/28 00:53:26;;;;;;;15.20;8.10;;;;;;;-7.03;76.82;98413.55;106004;1256;60411;-73
2023/11/28 00:55:53;;;;;;;13.60;8.60;;;;;;;-7.08;76.67;98412.41;105725;1257;74201;-76
2023/11/28 00:58:20;;;;;;;15.30;7.90;;;;;;;-7.13;76.36;98414.61;105733;1256;70305;-76
2023/11/28 01:00:47;;;;;;;8.90;6.00;;;;;;;-7.09;76.26;98416.98;105747;1253;72507;-76
2023/11/28 01:03:14;;;;;;;12.70;7.00;;;;;;;-6.97;76.04;98421.77;105877;1254;60695;-75
2023/11/28 01:05:42;;;;;;;16.00;7.90;;;;;;;-6.95;75.96;98419.93;106311;1254;60310;-74
2023/11/28 01:08:09;;;;;;;11.40;6.90;;;;;;;-6.99;75.57;98426.33;106202;1254;72532;-76
2023/11/28 01:10:37;;;;;;;10.30;6.10;;;;;;;-7.01;75.39;98428.73;107034;1255;69687;-74
2023/11/28 01:13:03;;;;;;;10.90;6.70;;;;;;;-7.03;74.99;98430.90;107654;1254;71260;-77
2023/11/28 01:15:32;;;;;;;9.10;5.80;;;;;;;-7.03;74.92;98437.42;105999;1254;61724;-77
2023/11/28 01:17:59;;;;;;;12.10;6.50;;;;;;;-6.91;74.61;98438.10;105857;1254;60531;-77
2023/11/28 01:20:26;;;;;;;10.10;6.20;;;;;;;-6.83;74.23;98439.55;105586;1253;72355;-76
2023/11/28 01:22:53;;;;;;;10.20;6.00;;;;;;;-6.86;73.92;98448.52;105882;1254;70088;-78
2023/11/28 01:25:21;;;;;;;8.60;5.60;;;;;;;-6.88;73.67;98443.60;105769;1254;72363;-77
2023/11/28 01:27:48;;;;;;;11.10;6.60;;;;;;;-6.90;73.72;98445.31;105724;1257;60396;-78
2023/11/28 01:30:15;;;;;;;13.60;5.90;;;;;;;-6.93;73.78;98445.95;105849;1254;60467;-79
2023/11/28 01:32:42;;;;;;;15.60;7.60;;;;;;;-6.93;73.64;98455.60;105945;1254;72384;-79
2023/11/28 01:35:09;;;;;;;11.10;5.60;;;;;;;-6.77;73.39;98460.88;105857;1257;68989;-75
2023/11/28 01:37:36;;;;;;;10.80;5.50;;;;;;;-6.70;72.94;98459.10;105713;1256;72442;-79
2023/11/28 01:40:03;;;;;;;10.30;5.20;;;;;;;-6.72;72.88;98458.19;105853;1254;60540;-79
2023/11/28 01:42:30;;;;;;;10.60;6.20;;;;;;;-6.73;73.09;98461.81;105820;1257;60391;-80
2023/11/28 01:45:00;;;;;;;12.60;7.30;;;;;;;-6.72;72.77;98462.81;105802;1254;73998;-77
2023/11/28 01:47:26;;;;;;;13.20;7.70;;;;;;;-6.72;72.49;98459.88;105787;1254;69109;-77
2023/11/28 01:49:53;;;;;;;11.90;6.80;;;;;;;-6.67;72.64;98463.92;105801;1257;72470;-77
2023/11/28 01:52:20;;;;;;;13.20;6.90;;;;;;;-6.55;72.29;98466.79;105895;1254;60479;-77
2023/11/28 01:54:48;;;;;;;9.20;5.90;;;;;;;-6.49;71.44;98472.34;106035;1257;60375;-77
2023/11/28 01:57:15;;;;;;;11.20;6.00;;;;;;;-6.54;71.60;98466.02;106040;1255;74446;-76
2023/11/28 01:59:42;;;;;;;9.70;5.10;;;;;;;-6.57;71.48;98461.75;106024;1255;70364;-79
2023/11/28 02:02:09;;;;;;;9.50;6.00;;;;;;;-6.61;71.46;98464.02;105783;1254;71381;-78
2023/11/28 02:04:35;;;;;;;10.20;6.20;;;;;;;-6.61;71.33;98471.98;105669;1254;60416;-77
2023/11/28 02:07:03;;;;;;;9.80;5.20;;;;;;;-6.53;71.33;98469.98;105720;1254;62104;-78
2023/11/28 02:09:29;;;;;;;9.40;5.30;;;;;;;-6.38;71.16;98458.35;105634;1257;72586;-76
2023/11/28 02:11:57;;;;;;;7.90;4.90;;;;;;;-6.34;71.16;98464.02;105718;1254;69045;-78
2023/11/28 02:14:23;;;;;;;8.30;4.90;;;;;;;-6.37;70.47;98466.91;105851;1255;72801;-78
2023/11/28 02:16:50;;;;;;;10.30;4.90;;;;;;;-6.38;70.65;98468.58;105869;1254;60345;-78
2023/11/28 02:19:17;;;;;;;10.50;5.30;;;;;;;-6.41;70.62;98476.12;105936;1257;60282;-77
2023/11/28 02:21:44;;;;;;;7.90;4.50;;;;;;;-6.42;70.75;98468.80;105952;1257;73714;-78
2023/11/28 02:24:12;;;;;;;7.20;4.30;;;;;;;-6.45;70.62;98469.50;105797;1254;70148;-78
2023/11/28 02:26:39;;;;;;;7.40;4.30;;;;;;;-6.47;70.44;98473.23;105922;1254;73633;-79
2023/11/28 02:29:05;;;;;;;7.40;4.50;;;;;;;-6.37;70.37;98477.62;106120;1254;60838;-78
2023/11/28 02:31:33;;;;;;;6.30;3.90;;;;;;;-6.30;70.08;98476.84;106364;1254;60367;-77
2023/11/28 02:34:00;;;;;;;8.10;4.70;;;;;;;-6.31;70.21;98475.70;106388;1257;73813;-78
2023/11/28 02:36:29;;;;;;;6.50;4.10;;;;;;;-6.34;70.53;98483.11;106543;1254;69007;-78
2023/11/28 02:38:56;;;;;;;7.00;4.10;;;;;;;-6.37;70.42;98488.27;106383;1257;72203;-78
2023/11/28 02:41:23;;;;;;;6.40;3.90;;;;;;;-6.37;70.61;98497.44;106492;1253;60547;-77
2023/11/28 02:43:50;;;;;;;6.50;3.90;;;;;;;-6.37;70.49;98495.34;106454;1254;60489;-77
2023/11/28 02:46:16;;;;;;;10.80;4.00;;;;;;;-6.34;70.46;98492.96;107354;1254;73703;-77
2023/11/28 02:48:43;;;;;;;6.50;4.20;;;;;;;-6.19;70.46;98485.48;107585;1254;68871;-77
2023/11/28 02:51:16;;;;;;;7.90;4.70;;;;;;;-6.14;70.26;98487.24;106065;1256;72801;-77
2023/11/28 02:53:44;;;;;;;9.00;5.00;;;;;;;-6.18;70.57;98489.02;105914;1254;60459;-77
2023/11/28 02:56:12;;;;;;;12.40;5.00;;;;;;;-6.21;70.51;98493.33;105950;1258;60379;-77
2023/11/28 02:58:39;;;;;;;10.20;5.00;;;;;;;-6.21;70.62;98497.52;105971;1254;71431;-77
2023/11/28 03:01:06;;;;;;;10.60;5.70;;;;;;;-6.23;70.68;98496.59;105912;1255;70422;-79
2023/11/28 03:03:33;;;;;;;9.10;5.00;;;;;;;-6.23;71.18;98498.69;105893;1256;72449;-80
2023/11/28 03:05:59;;;;;;;7.40;4.40;;;;;;;-6.09;71.30;98498.19;106295;1254;61814;-80
2023/11/28 03:08:26;;;;;;;7.90;5.20;;;;;;;-5.98;71.43;98494.00;106759;1254;60426;-79
2023/11/28 03:10:53;;;;;;;9.10;5.60;;;;;;;-5.99;71.34;98499.45;106651;1255;73542;-79
2023/11/28 03:13:20;;;;;;;10.30;5.60;;;;;;;-6.02;71.65;98499.13;105975;1254;69354;-78
2023/11/28 03:15:47;;;;;;;9.90;5.80;;;;;;;-6.04;71.78;98499.27;105730;1254;70332;-78
2023/11/28 03:18:13;;;;;;;10.60;6.40;;;;;;;-6.07;71.99;98507.73;105739;1254;60518;-77
2023/11/28 03:20:42;;;;;;;10.50;6.40;;;;;;;-6.10;72.13;98510.98;105898;1257;60381;-79
2023/11/28 03:23:08;;;;;;;12.30;6.40;;;;;;;-6.12;72.28;98515.23;105817;1255;73743;-81
2023/11/28 03:25:37;;;;;;;10.00;5.80;;;;;;;-6.10;72.46;98523.02;105718;1258;69413;-81
2023/11/28 03:28:04;;;;;;;11.00;6.20;;;;;;;-5.95;72.34;98523.27;105955;1254;72526;-79
2023/11/28 03:30:30;;;;;;;9.30;5.70;;;;;;;-5.92;72.48;98514.30;105895;1257;60464;-78
2023/11/28 03:32:57;;;;;;;10.10;6.10;;;;;;;-5.95;72.48;98520.22;105924;1254;60480;-80
2023/11/28 03:35:24;;;;;;;9.10;5.50;;;;;;;-5.96;72.62;98518.76;106156;1254;73764;-77
2023/11/28 03:37:51;;;;;;;10.60;7.60;;;;;;;-5.97;72.86;98524.15;106515;1254;68060;-78
2023/11/28 03:40:18;;;;;;;9.90;6.50;;;;;;;-5.99;73.12;98528.04;106478;1253;72742;-77
2023/11/28 03:42:45;;;;;;;11.50;7.30;;;;;;;-5.93;73.13;98524.55;107034;1254;61857;-79
2023/11/28 03:45:13;;;;;;;9.70;6.50;;;;;;;-5.75;73.15;98531.73;105947;1255;60407;-77
2023/11/28 03:47:40;;;;;;;10.90;7.60;;;;;;;-5.72;73.11;98533.09;106154;1255;73661;-79
2023/11/28 03:50:07;;;;;;;12.30;7.40;;;;;;;-5.76;73.31;98535.21;106101;1254;70421;-78
2023/11/28 03:52:34;;;;;;;12.00;6.90;;;;;;;-5.79;73.19;98534.55;105915;1254;72513;-78
2023/11/28 03:55:01;;;;;;;10.30;6.60;;;;;;;-5.80;73.37;98540.17;105326;1260;603893;-79
2023/11/28 04:00:17;;;;;;;13.10;7.40;;;;;;;-5.74;73.67;98550.50;102605;1292;600348;-79
2023/11/28 04:02:44;;;;;;;13.40;7.60;;;;;;;-5.58;73.51;98554.15;104948;1270;58931;-77
2023/11/28 04:05:13;;;;;;;19.00;8.80;;;;;;;-5.51;73.59;98557.67;105044;1266;59523;-77
2023/11/28 04:07:41;;;;;;;12.40;7.60;;;;;;;-5.50;73.90;98563.15;105264;1268;72175;-78
2023/11/28 04:10:09;;;;;;;14.20;8.20;;;;;;;-5.51;74.15;98564.92;105378;1263;70033;-77
2023/11/28 04:12:36;;;;;;;14.70;8.10;;;;;;;-5.50;74.33;98566.25;105555;1261;71450;-78
2023/11/28 04:15:05;;;;;;;14.60;8.60;;;;;;;-5.49;74.63;98571.86;105621;1257;141262;-78
2023/11/28 04:17:33;;;;;;;10.90;6.60;;;;;;;-5.34;74.46;98572.49;105664;1260;61339;-77
2023/11/28 04:20:01;;;;;;;10.90;7.20;;;;;;;-5.25;74.15;98572.27;106623;1259;72347;-76
2023/11/28 04:22:29;;;;;;;14.80;8.40;;;;;;;-5.25;74.17;98573.30;108465;1258;69042;-77
2023/11/28 04:24:57;;;;;;;13.30;7.90;;;;;;;-5.25;74.28;98578.98;105956;1259;71129;-76
2023/11/28 04:27:25;;;;;;;14.70;7.90;;;;;;;-5.24;74.41;98581.67;105520;1265;59713;-77
2023/11/28 04:29:53;;;;;;;15.00;7.20;;;;;;;-5.18;74.45;98579.75;107436;1264;60071;-77
2023/11/28 04:32:21;;;;;;;13.60;8.20;;;;;;;-5.00;74.33;98580.66;107249;1260;71850;-79
2023/11/28 04:34:49;;;;;;;11.70;8.20;;;;;;;-4.93;74.44;98580.41;106851;1256;68913;-77
2023/11/28 04:37:16;;;;;;;13.90;8.40;;;;;;;-4.94;74.37;98588.27;108562;1256;72731;-78
2023/11/28 04:39:47;;;;;;;13.70;8.50;;;;;;;-4.95;74.81;98586.58;108344;1256;59248;-76
2023/11/28 04:42:15;;;;;;;14.90;9.10;;;;;;;-4.95;74.84;98587.64;106104;1258;59502;-75
2023/11/28 04:44:43;;;;;;;15.00;9.20;;;;;;;-4.87;75.36;98596.23;106280;1257;73206;-76
2023/11/28 04:47:10;;;;;;;15.50;9.80;;;;;;;-4.74;75.16;98595.11;105892;1261;69044;-77
2023/11/28 04:49:39;;;;;;;15.60;10.70;;;;;;;-4.74;75.08;98598.02;105878;1253;72709;-77
2023/11/28 04:52:06;;;;;;;15.50;10.00;;;;;;;-4.78;75.36;98610.86;105838;1256;59805;-78
2023/11/28 04:54:34;;;;;;;18.70;12.10;;;;;;;-4.81;75.58;98614.73;105664;1253;60068;-78
2023/11/28 04:57:04;;;;;;;21.70;11.90;;;;;;;-4.74;75.88;98622.02;106094;1256;71951;-80
2023/11/28 04:59:33;;;;;;;18.50;12.30;;;;;;;-4.63;75.84;98622.69;105920;1259;70906;-80
2023/11/28 05:02:00;;;;;;;20.00;11.30;;;;;;;-4.63;76.02;98623.94;105875;1256;71298;-77
2023/11/28 05:04:28;;;;;;;19.20;11.60;;;;;;;-4.66;76.20;98622.59;105686;1259;59579;-77
2023/11/28 05:06:56;;;;;;;17.70;11.00;;;;;;;-4.66;76.33;98624.29;105673;1254;59864;-79
2023/11/28 05:09:27;;;;;;;18.60;12.00;;;;;;;-4.51;76.37;98626.59;105937;1253;72256;-77
2023/11/28 05:11:54;;;;;;;33.00;19.20;;;;;;;-4.45;76.08;98630.03;105897;1253;67715;-79
2023/11/28 05:14:22;;;;;;;26.00;17.60;;;;;;;-4.48;76.14;98631.91;105919;1259;71373;-76
2023/11/28 05:16:53;;;;;;;24.50;14.00;;;;;;;-4.49;76.15;98630.95;105926;1260;59789;-82
2023/11/28 05:19:22;;;;;;;17.60;11.30;;;;;;;-4.48;76.23;98636.09;105804;1253;60012;-77
2023/11/28 05:21:51;;;;;;;17.80;10.80;;;;;;;-4.36;76.09;98636.71;106207;1254;70776;-79
2023/11/28 05:24:19;;;;;;;17.00;11.20;;;;;;;-4.26;75.88;98640.88;106745;1259;69001;-82
2023/11/28 05:26:47;;;;;;;18.30;12.30;;;;;;;-4.28;75.94;98640.29;106623;1259;71094;-78
2023/11/28 05:29:14;;;;;;;19.20;11.30;;;;;;;-4.28;76.09;98641.36;106378;1257;60245;-78
2023/11/28 05:31:42;;;;;;;18.60;11.50;;;;;;;-4.28;76.10;98648.41;105771;1253;59705;-80
2023/11/28 05:34:10;;;;;;;19.70;11.60;;;;;;;-4.17;75.95;98647.16;106230;1253;71019;-80
2023/11/28 05:36:38;;;;;;;18.00;11.60;;;;;;;-4.08;75.71;98649.70;105942;1254;67821;-81
2023/11/28 05:39:06;;;;;;;18.30;12.10;;;;;;;-4.09;75.66;98652.02;105716;1253;71510;-79
2023/11/28 05:41:33;;;;;;;22.80;12.80;;;;;;;-4.11;75.83;98656.84;105796;1260;59656;-80
2023/11/28 05:44:03;;;;;;;22.90;12.20;;;;;;;-4.09;75.79;98654.78;105881;1254;59594;-78
2023/11/28 05:46:32;;;;;;;19.60;12.60;;;;;;;-3.95;75.65;98654.38;105870;1253;73387;-77
2023/11/28 05:49:00;;;;;;;19.80;12.40;;;;;;;-3.91;75.49;98659.80;105979;1255;72587;-79
2023/11/28 05:51:30;;;;;;;19.90;13.20;;;;;;;-3.92;75.64;98661.29;105815;1262;72759;-78
2023/11/28 05:53:59;;;;;;;23.00;12.80;;;;;;;-3.93;75.84;98662.55;106075;1254;59725;-80
2023/11/28 05:56:29;;;;;;;16.80;10.70;;;;;;;-3.89;75.96;98668.34;108465;1253;59522;-81
2023/11/28 05:58:57;;;;;;;17.20;12.00;;;;;;;-3.74;75.77;98670.56;107748;1253;70812;-81
2023/11/28 06:01:26;;;;;;;17.90;12.30;;;;;;;-3.67;75.55;98664.64;106811;1258;68869;-82
2023/11/28 06:03:55;;;;;;;22.40;12.70;;;;;;;-3.68;75.77;98666.36;106358;1254;73937;-81
2023/11/28 06:06:23;;;;;;;23.90;13.60;;;;;;;-3.68;75.91;98672.80;106237;1258;59625;-81
2023/11/28 06:08:51;;;;;;;19.50;12.10;;;;;;;-3.64;76.04;98679.95;105793;1253;59982;-84
2023/11/28 06:11:18;;;;;;;19.50;11.40;;;;;;;-3.50;76.11;98685.91;106269;1253;73101;-83
2023/11/28 06:13:46;;;;;;;20.00;12.20;;;;;;;-3.45;76.26;98684.88;106476;1259;70741;-84
2023/11/28 06:16:14;;;;;;;21.90;13.60;;;;;;;-3.46;76.60;98687.91;106684;1253;72941;-85
2023/11/28 06:18:42;;;;;;;18.80;13.40;;;;;;;-3.48;76.94;98687.69;105917;1254;59721;-82
2023/11/28 06:21:10;;;;;;;20.90;12.50;;;;;;;-3.47;77.17;98683.64;105987;1254;61726;-80
2023/11/28 06:23:39;;;;;;;21.40;13.30;;;;;;;-3.35;77.32;98692.54;106116;1257;73306;-84
2023/11/28 06:26:06;;;;;;;19.00;13.70;;;;;;;-3.28;77.11;98690.67;106119;1254;68881;-81
2023/11/28 06:28:36;;;;;;;22.30;14.40;;;;;;;-3.31;77.44;98688.84;105950;1259;71944;-80
2023/11/28 06:31:06;;;;;;;23.40;13.90;;;;;;;-3.33;77.74;98687.06;106364;1255;60061;-81
2023/11/28 06:33:34;;;;;;;21.70;13.90;;;;;;;-3.30;77.99;98690.98;106942;1253;62068;-80
2023/11/28 06:36:02;;;;;;;20.70;13.50;;;;;;;-3.16;77.83;98691.73;107737;1253;73216;-84
2023/11/28 06:38:31;;;;;;;22.70;14.60;;;;;;;-3.11;77.96;98688.30;106427;1254;71764;-80
2023/11/28 06:40:59;;;;;;;23.10;15.40;;;;;;;-3.13;78.08;98685.83;106169;1257;71412;-86
2023/11/28 06:43:27;;;;;;;26.10;15.90;;;;;;;-3.10;78.17;98687.52;108729;1253;59936;-85
2023/11/28 06:46:00;;;;;;;21.30;14.20;;;;;;;-3.01;78.13;98679.98;109073;1253;59215;-82
2023/11/28 06:48:28;;;;;;;24.00;14.90;;;;;;;-2.80;77.95;98674.44;106296;1253;72192;-82
2023/11/28 06:50:56;;;;;;;25.40;15.90;;;;;;;-2.67;77.86;98673.71;106299;1253;70537;-83
2023/11/28 06:53:24;;;;;;;23.50;14.60;;;;;;;-2.63;77.44;98673.09;106134;1256;71127;-83
2023/11/28 06:55:51;;;;;;;26.10;18.20;;;;;;;-2.67;77.07;98671.77;106029;1254;59602;-82
2023/11/28 06:58:19;;;;;;;26.90;15.90;;;;;;;-2.69;77.01;98676.30;106279;1256;59523;-83
2023/11/28 07:00:49;;;;;;;26.60;16.10;;;;;;;-2.70;76.98;98681.38;106399;1253;73015;-85
2023/11/28 07:03:20;;;;;;;26.70;16.00;;;;;;;-2.63;76.79;98678.61;106606;1261;70065;-82
2023/11/28 07:05:48;;;;;;;26.10;16.70;;;;;;;-2.64;76.79;98679.70;107224;1253;71897;-82
2023/11/28 07:08:16;;;;;;;25.30;16.40;;;;;;;-2.68;76.76;98690.24;106286;1260;59551;-84
2023/11/28 07:10:44;;;;;;;24.10;15.70;;;;;;;-2.74;76.88;98700.55;106560;1254;59991;-84
2023/11/28 07:13:14;;;;;;;24.10;16.30;;;;;;;-2.73;76.97;98701.90;107185;1257;74118;-84
2023/11/28 07:15:42;;;;;;;24.00;14.60;;;;;;;-2.65;76.53;98705.48;107074;1254;70730;-84
2023/11/28 07:18:10;;;;;;;26.10;16.90;;;;;;;-2.67;76.39;98701.63;106724;1253;73351;-84
2023/11/28 07:20:38;;;;;;;25.80;18.20;;;;;;;-2.75;76.48;98702.21;106368;1253;59794;-84
2023/11/28 07:23:06;;;;;;;27.30;16.30;;;;;;;-2.79;76.77;98706.11;106745;1254;60089;-83
2023/11/28 07:25:34;;;;;;;25.40;15.00;;;;;;;-2.76;76.51;98705.02;106517;1253;71798;-85
2023/11/28 07:28:03;;;;;;;36.90;18.60;;;;;;;-2.63;76.17;98704.30;106554;1258;68258;-84
2023/11/28 07:30:31;;;;;;;23.20;15.40;;;;;;;-2.65;75.74;98715.34;107107;1254;71487;-83
2023/11/28 07:32:59;;;;;;;26.50;14.70;;;;;;;-2.71;75.44;98717.32;109224;1253;58580;-82
2023/11/28 07:35:27;;;;;;;24.20;13.90;;;;;;;-2.74;75.59;98716.69;107468;1253;59638;-84
2023/11/28 07:37:56;;;;;;;22.50;14.30;;;;;;;-2.68;75.25;98719.54;106992;1253;73022;-84
2023/11/28 07:40:26;;;;;;;23.60;14.30;;;;;;;-2.56;75.12;98714.55;107649;1260;70379;-84
2023/11/28 07:42:54;;;;;;;24.90;16.90;;;;;;;-2.52;74.86;98718.91;107777;1253;71471;-85
2023/11/28 07:45:21;;;;;;;21.80;14.90;;;;;;;-2.48;74.66;98723.31;108984;1254;58318;-83
2023/11/28 07:47:49;;;;;;;21.60;14.80;;;;;;;-2.44;74.25;98720.95;108772;1252;58875;-85
2023/11/28 07:50:17;;;;;;;21.60;13.70;;;;;;;-2.43;74.10;98717.73;108967;1251;71757;-85
2023/11/28 07:52:45;;;;;;;24.50;15.00;;;;;;;-2.32;74.15;98722.73;108739;1254;69033;-86
2023/11/28 07:55:13;;;;;;;28.10;18.70;;;;;;;-2.24;73.45;98725.73;108442;1253;73358;-83
2023/11/28 07:57:40;;;;;;;28.20;17.50;;;;;;;-2.29;73.09;98723.13;107957;1255;59721;-84
2023/11/28 08:00:09;;;;;;;24.30;16.70;;;;;;;-2.32;73.17;98718.20;107859;1253;59993;-85
2023/11/28 08:02:39;;;;;;;21.80;14.80;;;;;;;-2.32;73.18;98724.39;108323;1253;72768;-84
2023/11/28 08:05:07;;;;;;;22.90;16.80;;;;;;;-2.29;72.93;98727.71;108185;1253;69074;-85
2023/11/28 08:07:35;;;;;;;26.70;18.40;;;;;;;-2.29;72.60;98725.73;107583;1256;71145;-83
2023/11/28 08:10:07;;;;;;;26.70;16.70;;;;;;;-2.17;72.52;98721.75;108080;1254;59292;-84
2023/11/28 08:12:35;;;;;;;41.90;20.40;;;;;;;-1.99;72.43;98722.73;108479;1253;58799;-85
2023/11/28 08:15:04;;;;;;;42.80;19.80;;;;;;;-1.88;71.93;98713.91;106922;1254;72645;-86
2023/11/28 08:17:32;;;;;;;29.90;18.70;;;;;;;-1.74;71.59;98712.55;107398;1253;69043;-84
2023/11/28 08:20:03;;;;;;;32.60;21.00;;;;;;;-1.54;71.51;98713.77;106692;1260;72932;-85
2023/11/28 08:22:32;;;;;;;29.40;19.80;;;;;;;-1.33;70.63;98714.66;107231;1254;60812;-85
2023/11/28 08:25:03;;;;;;;36.40;21.80;;;;;;;-1.15;69.83;98712.58;107731;1253;60256;-83
2023/11/28 08:27:30;;;;;;;25.00;16.20;;;;;;;-1.01;68.96;98713.05;108324;1257;72481;-83
2023/11/28 08:29:58;;;;;;;25.90;15.80;;;;;;;-0.87;68.23;98708.59;107126;1254;72591;-85
2023/11/28 08:32:32;;;;;;;24.60;16.90;;;;;;;-0.78;67.48;98708.11;107665;1257;71526;-85
2023/11/28 08:35:00;;;;;;;33.90;20.00;;;;;;;-0.69;67.72;98704.25;106535;1258;60527;-85
2023/11/28 08:37:29;;;;;;;31.10;18.80;;;;;;;-0.56;67.33;98708.80;106365;1261;60337;-85
2023/11/28 08:39:56;;;;;;;24.20;16.80;;;;;;;-0.43;66.61;98710.52;108226;1252;72590;-84
2023/11/28 08:42:24;;;;;;;25.10;16.80;;;;;;;-0.32;66.44;98705.66;108981;1253;68726;-84
2023/11/28 08:44:52;;;;;;;23.60;15.60;;;;;;;-0.14;66.60;98694.23;108783;1254;71589;-85
2023/11/28 08:47:20;;;;;;;21.50;13.30;;;;;;;0.11;65.83;98693.57;108694;1253;58122;-84
2023/11/28 08:49:47;;;;;;;19.10;14.50;;;;;;;0.34;65.17;98688.42;108812;1255;59129;-83
2023/11/28 08:52:16;;;;;;;20.10;14.20;;;;;;;0.52;64.83;98686.89;108223;1254;73095;-84
2023/11/28 08:54:44;;;;;;;19.20;13.40;;;;;;;0.76;64.20;98684.51;107980;1259;68931;-85
2023/11/28 08:57:15;;;;;;;20.80;15.00;;;;;;;1.10;64.14;98682.76;108432;1253;71367;-86
2023/11/28 08:59:43;;;;;;;22.40;16.20;;;;;;;1.41;63.37;98684.11;108666;1254;59209;-86
2023/11/28 09:02:11;;;;;;;22.70;17.80;;;;;;;1.71;61.71;98688.04;108493;1253;59367;-83
2023/11/28 09:04:39;;;;;;;21.20;15.90;;;;;;;1.99;61.32;98690.40;108882;1253;73846;-83
2023/11/28 09:07:07;;;;;;;18.20;14.40;;;;;;;2.36;59.44;98693.89;109515;1254;70288;-85
2023/11/28 09:09:35;;;;;;;19.60;14.20;;;;;;;2.55;58.15;98697.16;109362;1254;71393;-84
2023/11/28 09:12:03;;;;;;;21.40;15.20;;;;;;;2.58;57.03;98699.88;108519;1253;59058;-84
2023/11/28 09:14:31;;;;;;;21.50;16.90;;;;;;;2.64;57.22;98698.95;108243;1254;59142;-81
2023/11/28 09:17:14;;;;;;;24.50;16.60;;;;;;;2.73;57.06;98699.55;108405;1253;72707;-83
2023/11/28 09:19:41;;;;;;;23.90;16.80;;;;;;;2.99;56.27;98697.07;107958;1254;68839;-84
2023/11/28 09:22:09;;;;;;;20.90;15.10;;;;;;;3.13;55.48;98700.16;108086;1254;71188;-84
2023/11/28 09:24:37;;;;;;;26.50;18.00;;;;;;;3.41;55.42;98694.48;108302;1254;59455;-83
2023/11/28 09:27:06;;;;;;;24.70;18.70;;;;;;;3.88;55.75;98690.05;107864;1252;59296;-83
2023/11/28 09:29:35;;;;;;;22.30;15.80;;;;;;;4.31;55.34;98691.44;107421;1252;72096;-84
2023/11/28 09:32:04;;;;;;;20.30;16.30;;;;;;;4.75;53.05;98692.24;107359;1254;68717;-82
2023/11/28 09:34:32;;;;;;;19.10;14.50;;;;;;;5.11;52.25;98685.48;107003;1258;71345;-82
2023/11/28 09:37:01;;;;;;;23.00;17.20;;;;;;;5.30;51.58;98688.39;106637;1252;60491;-82
2023/11/28 09:39:29;;;;;;;21.30;16.50;;;;;;;5.43;51.33;98687.52;107710;1254;60312;-81
2023/11/28 09:41:58;;;;;;;19.90;15.80;;;;;;;5.67;51.39;98682.94;109020;1253;72617;-83
2023/11/28 09:44:29;;;;;;;23.60;16.80;;;;;;;6.19;51.94;98683.55;108780;1254;68774;-82
2023/11/28 09:46:56;;;;;;;19.80;15.50;;;;;;;6.77;51.29;98680.96;108649;1255;71843;-82
2023/11/28 09:49:24;;;;;;;17.30;15.20;;;;;;;7.31;49.74;98684.05;108162;1260;59152;-81
2023/11/28 09:51:53;;;;;;;18.60;15.60;;;;;;;7.44;49.20;98681.25;108570;1252;60294;-83
2023/11/28 09:54:21;;;;;;;17.30;13.90;;;;;;;7.43;49.40;98681.35;108447;1253;73956;-83
2023/11/28 09:56:48;;;;;;;16.20;14.00;;;;;;;7.40;49.17;98675.73;108375;1258;68703;-81
2023/11/28 09:59:16;;;;;;;16.20;13.20;;;;;;;7.42;48.68;98670.76;107761;1258;71148;-82
2023/11/28 10:01:44;;;;;;;17.70;14.00;;;;;;;7.52;47.87;98663.90;108359;1251;60858;-82
2023/11/28 10:04:12;;;;;;;14.90;12.40;;;;;;;7.69;49.00;98664.84;108579;1252;60427;-81
2023/11/28 10:06:43;;;;;;;16.70;13.30;;;;;;;7.84;47.87;98656.64;108490;1253;73474;-82
2023/11/28 10:09:11;;;;;;;15.30;12.50;;;;;;;7.99;48.79;98651.48;108570;1252;68884;-82
2023/11/28 10:11:40;;;;;;;17.40;13.80;;;;;;;8.20;48.51;98652.80;108659;1257;71550;-83
2023/11/28 10:14:08;;;;;;;17.30;13.50;;;;;;;8.34;47.23;98650.77;108993;1253;60410;-80
2023/11/28 10:16:43;;;;;;;20.60;16.30;;;;;;;8.28;46.80;98649.77;108893;1255;59923;-83
2023/11/28 10:19:13;;;;;;;24.10;18.30;;;;;;;8.19;48.24;98642.79;108472;1258;75010;-81
2023/11/28 10:21:40;;;;;;;19.30;17.10;;;;;;;8.32;48.96;98640.23;108766;1251;69364;-81
2023/11/28 10:24:12;;;;;;;21.40;15.70;;;;;;;8.77;49.05;98638.88;108580;1253;71575;-81
2023/11/28 10:26:40;;;;;;;17.70;12.50;;;;;;;9.45;49.36;98631.94;108219;1253;58309;-80
2023/11/28 10:29:08;;;;;;;13.90;11.30;;;;;;;10.15;48.35;98634.08;107974;1254;60427;-81
2023/11/28 10:31:38;;;;;;;15.30;11.00;;;;;;;10.59;45.46;98625.67;108369;1257;73894;-81
2023/11/28 10:34:09;;;;;;;14.10;11.20;;;;;;;10.95;47.33;98619.19;107573;1253;70198;-81
2023/11/28 10:36:42;;;;;;;16.60;12.80;;;;;;;11.47;45.95;98612.20;108148;1255;71590;-80
2023/11/28 10:39:19;;;;;;;15.40;12.20;;;;;;;11.74;43.72;98612.21;108631;1254;60346;-80
2023/11/28 10:41:47;;;;;;;13.50;12.10;;;;;;;11.70;45.32;98616.34;109418;1253;59092;-83
2023/11/28 10:44:15;;;;;;;17.60;12.90;;;;;;;12.04;47.20;98619.83;109496;1254;72462;-80
2023/11/28 10:46:43;;;;;;;13.10;11.00;;;;;;;12.62;47.59;98620.62;109242;1254;71392;-83
2023/11/28 10:49:11;;;;;;;12.80;10.60;;;;;;;13.19;46.36;98621.95;109274;1253;71496;-81
2023/11/28 10:51:38;;;;;;;13.80;11.20;;;;;;;13.53;42.88;98618.13;108747;1254;60398;-81
2023/11/28 10:54:07;;;;;;;12.60;10.90;;;;;;;13.61;42.87;98623.06;108397;1254;60001;-80
2023/11/28 10:56:48;;;;;;;15.20;12.10;;;;;;;13.31;40.64;98622.27;108607;1256;74749;-81
2023/11/28 10:59:30;;;;;;;13.00;11.00;;;;;;;12.51;40.19;98629.28;106418;1253;69047;-81
2023/11/28 11:01:58;;;;;;;10.50;9.00;;;;;;;11.61;40.60;98627.53;106418;1257;73261;-77
2023/11/28 11:04:26;;;;;;;11.20;10.00;;;;;;;10.99;41.42;98632.46;106330;1262;60508;-81
2023/11/28 11:06:53;;;;;;;13.30;10.60;;;;;;;10.38;42.77;98629.40;106268;1257;60349;-81
2023/11/28 11:09:23;;;;;;;14.60;11.60;;;;;;;9.71;42.70;98627.65;106465;1260;76051;-81
2023/11/28 11:11:51;;;;;;;15.00;11.40;;;;;;;9.11;43.69;98632.59;106818;1259;69759;-81
2023/11/28 11:14:26;;;;;;;11.50;9.50;;;;;;;8.69;44.60;98641.39;106224;1255;71622;-82
2023/11/28 11:17:32;;;;;;;10.30;9.10;;;;;;;8.23;44.78;98636.73;106058;1252;60482;-80
2023/11/28 11:20:00;;;;;;;11.50;9.50;;;;;;;7.82;45.51;98641.12;105823;1252;60382;-80
2023/11/28 11:22:30;;;;;;;11.30;9.00;;;;;;;7.48;45.30;98644.09;105955;1254;72594;-81